Capitol Logistics 981

Operating for DHL



LEBL
Barcelona International Airport
Barcelona, ES
LEMD
Adolfo Suárez Madrid-Barajas International Airport
Madrid, ES

Activity Log

Date Flight Route Aircraft Duration
No Flights Yet

Route Details

Aircraft Information
Group: European Fleet
Types: A30F,A31F,B738
Route Data
Demand: V
Distance: 261nm
Duration: 1h 25m
Recm'd Route: SENI1T SENIA UZ596 NEXAS UN975 ADUXO ADUX1D
Origin Wx: LEBL 270630Z 34010KT 300V010 CAVOK 19/11 Q1018 NOSIG
Dest. Wx: LEMD 270600Z 36005KT CAVOK 13/05 Q1022 NOSIG
Notes:

Financial History
Total Freight: 0lbs
Average Load: 0lbs/flt
Fuel Used: 0lbs
Avg. Fuel Used: 0lbs/flt
Fuel Expense: $0
Avg. Fuel Expense: $0
Avg. Fuel Cost: $0/lbs
Total Gross Income: $0
Pilot Pay: $0
Total Expenses: $0
Total Revenue: $0
Average Revenue: $0